createdAt,value
2017-10-16T00:01:02.000Z,100.00
2017-10-16T00:01:50.000Z,100.00
2017-10-16T00:02:55.000Z,100.00
2017-10-16T00:03:50.000Z,100.00
2017-10-16T00:05:00.000Z,100.00
2017-10-16T00:05:50.000Z,100.00
2017-10-16T00:06:55.000Z,100.00
2017-10-16T00:07:50.000Z,100.00
2017-10-16T00:08:55.000Z,100.00
2017-10-16T00:09:50.000Z,100.00
2017-10-16T00:10:55.000Z,100.00
2017-10-16T00:11:50.000Z,100.00
2017-10-16T00:12:55.000Z,100.00
2017-10-16T00:13:50.000Z,100.00
2017-10-16T00:14:55.000Z,100.00
2017-10-16T00:15:50.000Z,100.00
2017-10-16T00:16:56.000Z,100.00
2017-10-16T00:17:50.000Z,100.00
2017-10-16T00:18:55.000Z,100.00
2017-10-16T00:19:50.000Z,100.00
2017-10-16T00:20:55.000Z,100.00
2017-10-16T00:21:50.000Z,100.00
2017-10-16T00:22:55.000Z,100.00
2017-10-16T00:23:50.000Z,100.00
2017-10-16T00:24:55.000Z,100.00
2017-10-16T00:25:50.000Z,100.00
2017-10-16T00:26:55.000Z,100.00
2017-10-16T00:27:50.000Z,100.00
2017-10-16T00:28:55.000Z,100.00
2017-10-16T00:29:50.000Z,100.00
2017-10-16T00:31:01.000Z,100.00
2017-10-16T00:31:50.000Z,100.00
2017-10-16T00:32:55.000Z,100.00
2017-10-16T00:33:50.000Z,100.00
2017-10-16T00:34:56.000Z,100.00
2017-10-16T00:35:50.000Z,100.00
2017-10-16T00:36:56.000Z,100.00
2017-10-16T00:37:50.000Z,100.00
2017-10-16T00:38:56.000Z,100.00
2017-10-16T00:39:50.000Z,100.00
2017-10-16T00:40:56.000Z,100.00
2017-10-16T00:41:50.000Z,100.00
2017-10-16T00:43:01.000Z,100.00
2017-10-16T00:43:50.000Z,100.00
2017-10-16T00:44:56.000Z,100.00
2017-10-16T00:45:50.000Z,100.00
2017-10-16T00:46:56.000Z,100.00
2017-10-16T00:47:50.000Z,100.00
2017-10-16T00:48:56.000Z,100.00
2017-10-16T00:49:50.000Z,100.00
2017-10-16T00:50:56.000Z,100.00
2017-10-16T00:51:50.000Z,100.00
2017-10-16T00:52:56.000Z,100.00
2017-10-16T00:53:50.000Z,100.00
2017-10-16T00:54:56.000Z,100.00
2017-10-16T00:55:50.000Z,100.00
2017-10-16T00:56:56.000Z,100.00
2017-10-16T00:57:50.000Z,100.00
2017-10-16T00:58:56.000Z,100.00
2017-10-16T00:59:50.000Z,100.00
2017-10-16T01:02:44.000Z,100.00
2017-10-16T01:02:44.000Z,100.00
2017-10-16T01:02:50.000Z,100.00
2017-10-16T01:06:00.000Z,100.00
2017-10-16T01:06:01.000Z,100.00
2017-10-16T01:06:02.000Z,100.00
2017-10-16T01:08:39.000Z,100.00
2017-10-16T01:08:40.000Z,100.00
2017-10-16T01:08:50.000Z,100.00
2017-10-16T01:11:46.000Z,100.00
2017-10-16T01:11:47.000Z,100.00
2017-10-16T01:11:50.000Z,100.00
2017-10-16T01:15:15.000Z,100.00
2017-10-16T01:15:46.000Z,100.00
2017-10-16T01:15:47.000Z,100.00
2017-10-16T01:17:58.000Z,100.00
2017-10-16T01:17:59.000Z,100.00
2017-10-16T01:18:00.000Z,100.00
2017-10-16T01:20:39.000Z,100.00
2017-10-16T01:20:40.000Z,100.00
2017-10-16T01:20:50.000Z,100.00
2017-10-16T01:23:48.000Z,100.00
2017-10-16T01:23:49.000Z,100.00
2017-10-16T01:23:50.000Z,100.00
2017-10-16T01:26:41.000Z,100.00
2017-10-16T01:26:42.000Z,100.00
2017-10-16T01:26:51.000Z,100.00
2017-10-16T01:29:47.000Z,100.00
2017-10-16T01:29:48.000Z,100.00
2017-10-16T01:29:51.000Z,100.00
2017-10-16T01:32:40.000Z,100.00
2017-10-16T01:32:41.000Z,100.00
2017-10-16T01:32:51.000Z,100.00
2017-10-16T01:35:49.000Z,100.00
2017-10-16T01:35:49.000Z,100.00
2017-10-16T01:35:51.000Z,100.00
2017-10-16T01:38:40.000Z,100.00
2017-10-16T01:38:41.000Z,100.00
2017-10-16T01:38:50.000Z,100.00
2017-10-16T01:41:49.000Z,100.00
2017-10-16T01:41:50.000Z,100.00
2017-10-16T01:41:51.000Z,100.00
2017-10-16T01:45:15.000Z,100.00
2017-10-16T01:45:46.000Z,100.00
2017-10-16T01:45:53.000Z,100.00
2017-10-16T01:47:55.000Z,100.00
2017-10-16T01:47:56.000Z,100.00
2017-10-16T01:47:57.000Z,100.00
2017-10-16T01:50:40.000Z,100.00
2017-10-16T01:50:41.000Z,100.00
2017-10-16T01:50:51.000Z,100.00
2017-10-16T01:53:49.000Z,100.00
2017-10-16T01:53:50.000Z,100.00
2017-10-16T01:53:51.000Z,100.00
2017-10-16T01:56:45.000Z,100.00
2017-10-16T01:56:45.000Z,100.00
2017-10-16T01:56:51.000Z,100.00
2017-10-16T01:59:49.000Z,100.00
2017-10-16T01:59:50.000Z,100.00
2017-10-16T01:59:51.000Z,100.00
2017-10-16T02:00:57.000Z,100.00
2017-10-16T02:01:51.000Z,100.00
2017-10-16T02:02:56.000Z,100.00
2017-10-16T02:03:51.000Z,100.00
2017-10-16T02:04:56.000Z,100.00
2017-10-16T02:05:51.000Z,100.00
2017-10-16T02:06:56.000Z,100.00
2017-10-16T02:07:51.000Z,100.00
2017-10-16T02:08:56.000Z,100.00
2017-10-16T02:09:51.000Z,100.00
2017-10-16T02:10:56.000Z,100.00
2017-10-16T02:11:51.000Z,100.00
2017-10-16T02:12:56.000Z,100.00
2017-10-16T02:13:51.000Z,100.00
2017-10-16T02:14:56.000Z,100.00
2017-10-16T02:15:51.000Z,100.00
2017-10-16T02:17:00.000Z,100.00
2017-10-16T02:17:51.000Z,100.00
2017-10-16T02:18:56.000Z,100.00
2017-10-16T02:19:51.000Z,100.00
2017-10-16T02:20:56.000Z,100.00
2017-10-16T02:21:51.000Z,100.00
2017-10-16T02:22:56.000Z,100.00
2017-10-16T02:23:51.000Z,100.00
2017-10-16T02:24:56.000Z,100.00
2017-10-16T02:25:51.000Z,100.00
2017-10-16T02:26:56.000Z,100.00
2017-10-16T02:27:51.000Z,100.00
2017-10-16T02:29:02.000Z,100.00
2017-10-16T02:29:56.000Z,100.00
2017-10-16T02:30:51.000Z,100.00
2017-10-16T02:32:02.000Z,100.00
2017-10-16T02:33:02.000Z,100.00
2017-10-16T02:34:01.000Z,100.00
2017-10-16T02:35:02.000Z,100.00
2017-10-16T02:36:02.000Z,100.00
2017-10-16T02:37:02.000Z,100.00
2017-10-16T02:38:02.000Z,100.00
2017-10-16T02:39:02.000Z,100.00
2017-10-16T02:39:51.000Z,100.00
2017-10-16T02:40:52.000Z,100.00
2017-10-16T02:41:52.000Z,100.00
2017-10-16T02:42:52.000Z,100.00
2017-10-16T02:43:52.000Z,100.00
2017-10-16T02:44:52.000Z,100.00
2017-10-16T02:45:52.000Z,100.00
2017-10-16T02:46:52.000Z,100.00
2017-10-16T02:47:51.000Z,100.00
2017-10-16T02:48:52.000Z,100.00
2017-10-16T02:49:52.000Z,100.00
2017-10-16T02:50:52.000Z,100.00
2017-10-16T02:51:52.000Z,100.00
2017-10-16T02:52:52.000Z,100.00
2017-10-16T02:53:52.000Z,100.00
2017-10-16T02:54:52.000Z,100.00
2017-10-16T02:55:52.000Z,100.00
2017-10-16T02:56:52.000Z,100.00
2017-10-16T02:57:52.000Z,100.00
2017-10-16T02:58:52.000Z,100.00
2017-10-16T02:59:52.000Z,100.00
2017-10-16T03:00:52.000Z,100.00
2017-10-16T03:01:52.000Z,100.00
2017-10-16T03:02:52.000Z,100.00
2017-10-16T03:03:52.000Z,100.00
2017-10-16T03:04:52.000Z,100.00
2017-10-16T03:05:52.000Z,100.00
2017-10-16T03:06:52.000Z,100.00
2017-10-16T03:07:52.000Z,100.00
2017-10-16T03:08:52.000Z,100.00
2017-10-16T03:09:52.000Z,100.00
2017-10-16T03:10:52.000Z,100.00
2017-10-16T03:11:52.000Z,100.00
2017-10-16T03:12:52.000Z,100.00
2017-10-16T03:13:52.000Z,100.00
2017-10-16T03:14:52.000Z,100.00
2017-10-16T03:15:52.000Z,100.00
2017-10-16T03:16:52.000Z,100.00
2017-10-16T03:17:52.000Z,100.00
2017-10-16T03:18:52.000Z,100.00
2017-10-16T03:19:52.000Z,100.00
2017-10-16T03:20:52.000Z,100.00
2017-10-16T03:21:52.000Z,100.00
2017-10-16T03:22:52.000Z,100.00
2017-10-16T03:23:52.000Z,100.00
2017-10-16T03:24:52.000Z,100.00
2017-10-16T03:25:52.000Z,100.00
2017-10-16T03:26:52.000Z,100.00
2017-10-16T03:27:52.000Z,100.00
2017-10-16T03:28:52.000Z,100.00
2017-10-16T03:29:52.000Z,100.00
2017-10-16T03:30:52.000Z,100.00
2017-10-16T03:31:52.000Z,100.00
2017-10-16T03:32:52.000Z,100.00
2017-10-16T03:33:52.000Z,100.00
2017-10-16T03:34:52.000Z,100.00
2017-10-16T03:35:52.000Z,100.00
2017-10-16T03:36:52.000Z,100.00
2017-10-16T03:37:52.000Z,100.00
2017-10-16T03:38:52.000Z,100.00
2017-10-16T03:39:53.000Z,100.00
2017-10-16T03:41:39.000Z,100.00
2017-10-16T03:41:42.000Z,100.00
2017-10-16T03:41:52.000Z,100.00
2017-10-16T03:42:52.000Z,100.00
2017-10-16T03:43:52.000Z,100.00
2017-10-16T03:44:52.000Z,100.00
2017-10-16T03:45:52.000Z,100.00
2017-10-16T03:46:52.000Z,100.00
2017-10-16T03:47:51.000Z,100.00
2017-10-16T03:48:52.000Z,100.00
2017-10-16T03:49:52.000Z,100.00
2017-10-16T03:50:52.000Z,100.00
2017-10-16T03:51:52.000Z,100.00
2017-10-16T03:52:52.000Z,100.00
2017-10-16T03:53:52.000Z,100.00
2017-10-16T03:54:52.000Z,100.00
2017-10-16T03:55:52.000Z,100.00
2017-10-16T03:56:52.000Z,100.00
2017-10-16T03:57:52.000Z,100.00
2017-10-16T03:58:52.000Z,100.00
2017-10-16T03:59:52.000Z,100.00
2017-10-16T04:00:52.000Z,100.00
2017-10-16T04:01:52.000Z,100.00
2017-10-16T04:02:52.000Z,100.00
2017-10-16T04:03:52.000Z,100.00
2017-10-16T04:04:52.000Z,100.00
2017-10-16T04:05:52.000Z,100.00
2017-10-16T04:06:52.000Z,100.00
2017-10-16T04:07:52.000Z,100.00
2017-10-16T04:08:52.000Z,100.00
2017-10-16T04:09:52.000Z,100.00
2017-10-16T04:10:52.000Z,100.00
2017-10-16T04:11:52.000Z,100.00
2017-10-16T04:12:52.000Z,100.00
2017-10-16T04:13:52.000Z,100.00
2017-10-16T04:14:52.000Z,100.00
2017-10-16T04:15:52.000Z,100.00
2017-10-16T04:16:52.000Z,100.00
2017-10-16T04:17:52.000Z,100.00
2017-10-16T04:18:52.000Z,100.00
2017-10-16T04:19:52.000Z,100.00
2017-10-16T04:20:52.000Z,100.00
2017-10-16T04:21:52.000Z,100.00
2017-10-16T04:22:52.000Z,100.00
2017-10-16T04:23:52.000Z,100.00
2017-10-16T04:24:52.000Z,100.00
2017-10-16T04:25:52.000Z,100.00
2017-10-16T04:26:52.000Z,100.00
2017-10-16T04:27:52.000Z,100.00
2017-10-16T04:28:52.000Z,100.00
2017-10-16T04:29:52.000Z,100.00
2017-10-16T04:30:52.000Z,100.00
2017-10-16T04:31:52.000Z,100.00
2017-10-16T04:32:52.000Z,100.00
2017-10-16T04:33:52.000Z,100.00
2017-10-16T04:34:52.000Z,100.00
2017-10-16T04:35:52.000Z,100.00
2017-10-16T04:36:52.000Z,100.00
2017-10-16T04:37:52.000Z,100.00
2017-10-16T04:38:52.000Z,100.00
2017-10-16T04:39:52.000Z,100.00
2017-10-16T04:40:52.000Z,100.00
2017-10-16T04:41:52.000Z,100.00
2017-10-16T04:42:52.000Z,100.00
2017-10-16T04:43:52.000Z,100.00
2017-10-16T04:44:52.000Z,100.00
2017-10-16T04:45:52.000Z,100.00
2017-10-16T04:46:52.000Z,100.00
2017-10-16T04:47:52.000Z,100.00
2017-10-16T04:48:52.000Z,100.00
2017-10-16T04:49:52.000Z,100.00
2017-10-16T04:50:52.000Z,100.00
2017-10-16T04:51:52.000Z,100.00
2017-10-16T04:52:52.000Z,100.00
2017-10-16T04:53:52.000Z,100.00
2017-10-16T04:54:52.000Z,100.00
2017-10-16T04:55:52.000Z,100.00
2017-10-16T04:56:52.000Z,100.00
2017-10-16T04:57:52.000Z,100.00
2017-10-16T04:58:52.000Z,100.00
2017-10-16T04:59:52.000Z,100.00
2017-10-16T05:00:52.000Z,100.00
2017-10-16T05:01:52.000Z,100.00
2017-10-16T05:02:52.000Z,100.00
2017-10-16T05:03:52.000Z,100.00
2017-10-16T05:04:52.000Z,100.00
2017-10-16T05:05:52.000Z,100.00
2017-10-16T05:06:52.000Z,100.00
2017-10-16T05:07:52.000Z,100.00
2017-10-16T05:08:52.000Z,100.00
2017-10-16T05:09:52.000Z,100.00
2017-10-16T05:10:52.000Z,100.00
2017-10-16T05:11:52.000Z,100.00
2017-10-16T05:12:52.000Z,100.00
2017-10-16T05:13:52.000Z,100.00
2017-10-16T05:14:52.000Z,100.00
2017-10-16T05:15:52.000Z,100.00
2017-10-16T05:16:52.000Z,100.00
2017-10-16T05:17:52.000Z,100.00
2017-10-16T05:18:52.000Z,100.00
2017-10-16T05:19:52.000Z,100.00
2017-10-16T05:20:52.000Z,100.00
2017-10-16T05:21:52.000Z,100.00
2017-10-16T05:22:52.000Z,100.00
2017-10-16T05:23:52.000Z,100.00
2017-10-16T05:24:52.000Z,100.00
2017-10-16T05:25:52.000Z,100.00
2017-10-16T05:26:52.000Z,100.00
2017-10-16T05:27:52.000Z,100.00
2017-10-16T05:28:52.000Z,100.00
2017-10-16T05:29:52.000Z,100.00
2017-10-16T05:30:52.000Z,100.00
2017-10-16T05:31:52.000Z,100.00
2017-10-16T05:32:52.000Z,100.00
2017-10-16T05:33:52.000Z,100.00
2017-10-16T05:34:52.000Z,100.00
2017-10-16T05:35:52.000Z,100.00
2017-10-16T05:36:52.000Z,100.00
2017-10-16T05:37:52.000Z,100.00
2017-10-16T05:38:52.000Z,100.00
2017-10-16T05:39:52.000Z,100.00
2017-10-16T05:40:52.000Z,100.00
2017-10-16T05:41:52.000Z,100.00
2017-10-16T05:42:52.000Z,100.00
2017-10-16T05:43:52.000Z,100.00
2017-10-16T05:44:52.000Z,100.00
2017-10-16T05:45:52.000Z,100.00
2017-10-16T05:46:52.000Z,100.00
2017-10-16T05:47:52.000Z,100.00
2017-10-16T05:48:52.000Z,100.00
2017-10-16T05:49:52.000Z,100.00
2017-10-16T05:50:52.000Z,100.00
2017-10-16T05:51:52.000Z,100.00
2017-10-16T05:52:52.000Z,100.00
2017-10-16T05:53:52.000Z,100.00
2017-10-16T05:54:52.000Z,100.00
2017-10-16T05:55:52.000Z,100.00
2017-10-16T05:56:52.000Z,100.00
2017-10-16T05:57:52.000Z,100.00
2017-10-16T05:58:52.000Z,100.00
2017-10-16T05:59:52.000Z,100.00
2017-10-16T06:00:52.000Z,100.00
2017-10-16T06:01:52.000Z,100.00
2017-10-16T06:02:52.000Z,100.00
2017-10-16T06:03:52.000Z,100.00
2017-10-16T06:04:52.000Z,100.00
2017-10-16T06:05:56.000Z,100.00
2017-10-16T06:06:52.000Z,100.00
2017-10-16T06:07:52.000Z,100.00
2017-10-16T06:08:53.000Z,100.00
2017-10-16T06:09:53.000Z,100.00
2017-10-16T11:46:49.000Z,57.07
2017-10-16T11:47:09.000Z,56.86
2017-10-16T11:48:02.000Z,57.08
2017-10-16T11:49:02.000Z,56.81
2017-10-16T11:50:02.000Z,57.50
2017-10-16T11:51:02.000Z,54.59
2017-10-16T11:52:03.000Z,55.89
2017-10-16T11:53:02.000Z,54.33
2017-10-16T11:54:03.000Z,53.48
2017-10-16T11:55:02.000Z,53.81
2017-10-16T11:56:02.000Z,53.21
2017-10-16T11:57:02.000Z,52.89
2017-10-16T11:58:09.000Z,51.77
2017-10-16T11:59:02.000Z,50.96
2017-10-16T12:00:02.000Z,53.09
2017-10-16T12:01:02.000Z,51.37
2017-10-16T12:02:02.000Z,51.59
2017-10-16T12:03:02.000Z,54.15
2017-10-16T12:04:02.000Z,52.42
2017-10-16T12:05:02.000Z,50.29
2017-10-16T12:06:02.000Z,51.77
2017-10-16T12:07:02.000Z,50.42
2017-10-16T12:08:02.000Z,49.93
2017-10-16T12:09:02.000Z,48.44
2017-10-16T12:10:02.000Z,49.34
2017-10-16T12:11:02.000Z,52.28
2017-10-16T12:12:02.000Z,52.57
2017-10-16T12:13:02.000Z,52.89
2017-10-16T12:14:02.000Z,52.22
2017-10-16T12:15:02.000Z,51.35
2017-10-16T12:16:02.000Z,52.82
2017-10-16T12:17:02.000Z,53.31
2017-10-16T12:18:02.000Z,49.54
2017-10-16T12:19:02.000Z,52.31
2017-10-16T12:20:03.000Z,52.13
2017-10-16T12:21:02.000Z,51.37
2017-10-16T12:22:03.000Z,52.19
2017-10-16T12:23:02.000Z,53.94
2017-10-16T12:24:02.000Z,53.76
2017-10-16T12:25:03.000Z,52.84
2017-10-16T12:26:02.000Z,54.50
2017-10-16T12:27:03.000Z,54.05
2017-10-16T12:28:03.000Z,54.37
2017-10-16T12:29:03.000Z,57.47
2017-10-16T12:30:03.000Z,56.34
2017-10-16T12:31:03.000Z,55.45
2017-10-16T12:32:03.000Z,55.62
2017-10-16T12:33:03.000Z,54.91
2017-10-16T12:34:03.000Z,55.94
2017-10-16T12:35:03.000Z,56.48
2017-10-16T12:36:03.000Z,57.04
2017-10-16T12:37:03.000Z,56.61
2017-10-16T12:38:03.000Z,56.67
2017-10-16T12:39:03.000Z,57.08
2017-10-16T12:40:03.000Z,58.26
2017-10-16T12:41:03.000Z,57.63
2017-10-16T12:42:03.000Z,55.51
2017-10-16T12:43:03.000Z,55.90
2017-10-16T12:44:03.000Z,56.33
2017-10-16T12:45:03.000Z,56.59
2017-10-16T12:46:03.000Z,57.68
2017-10-16T12:47:03.000Z,57.25
2017-10-16T12:48:03.000Z,56.88
2017-10-16T12:49:03.000Z,57.86
2017-10-16T12:50:03.000Z,57.60
2017-10-16T12:51:03.000Z,57.31
2017-10-16T12:52:03.000Z,57.47
2017-10-16T12:53:03.000Z,57.50
2017-10-16T12:54:03.000Z,54.45
2017-10-16T12:55:03.000Z,56.57
2017-10-16T12:56:03.000Z,56.10
2017-10-16T12:57:03.000Z,57.17
2017-10-16T12:58:03.000Z,55.10
2017-10-16T12:59:03.000Z,58.11
2017-10-16T13:00:03.000Z,53.21
2017-10-16T13:01:03.000Z,52.05
2017-10-16T13:02:03.000Z,53.59
2017-10-16T13:03:03.000Z,53.78
2017-10-16T13:04:03.000Z,51.75
2017-10-16T13:05:03.000Z,51.14
2017-10-16T13:06:03.000Z,54.02
2017-10-16T13:07:03.000Z,53.99
2017-10-16T13:08:03.000Z,53.68
2017-10-16T13:09:03.000Z,56.56
2017-10-16T13:10:03.000Z,55.91
2017-10-16T13:11:03.000Z,55.51
2017-10-16T13:12:03.000Z,51.78
2017-10-16T13:13:03.000Z,52.81
2017-10-16T13:14:03.000Z,52.92
2017-10-16T13:15:03.000Z,49.27
2017-10-16T13:15:59.000Z,49.25
2017-10-16T13:18:38.000Z,50.80
2017-10-16T13:19:03.000Z,50.32
2017-10-16T13:19:34.000Z,52.14
2017-10-16T13:21:58.000Z,51.80
2017-10-16T13:22:13.000Z,53.67
2017-10-16T13:22:44.000Z,53.58
2017-10-16T13:23:19.000Z,49.78
2017-10-16T13:24:03.000Z,52.80
2017-10-16T13:25:03.000Z,49.95
2017-10-16T13:26:03.000Z,51.11
2017-10-16T13:27:03.000Z,53.52
2017-10-16T13:28:03.000Z,51.52
2017-10-16T13:29:03.000Z,50.18
2017-10-16T13:30:03.000Z,51.48
2017-10-16T13:31:03.000Z,52.93
2017-10-16T13:32:03.000Z,53.94
2017-10-16T13:33:03.000Z,52.68
2017-10-16T13:34:03.000Z,55.06
2017-10-16T13:35:03.000Z,54.62
2017-10-16T13:36:03.000Z,54.07
2017-10-16T13:37:03.000Z,52.23
2017-10-16T13:38:03.000Z,53.85
2017-10-16T13:39:03.000Z,52.10
2017-10-16T13:40:03.000Z,52.94
2017-10-16T13:41:03.000Z,55.20
2017-10-16T13:42:03.000Z,52.26
2017-10-16T13:43:03.000Z,53.51
2017-10-16T13:44:03.000Z,52.08
2017-10-16T13:45:03.000Z,52.34
2017-10-16T13:46:03.000Z,50.81
2017-10-16T13:47:03.000Z,51.11
2017-10-16T13:48:03.000Z,49.15
2017-10-16T13:49:03.000Z,49.13
2017-10-16T13:50:03.000Z,50.05
2017-10-16T13:51:03.000Z,48.58
2017-10-16T13:52:03.000Z,49.67
2017-10-16T13:53:03.000Z,50.53
2017-10-16T13:54:03.000Z,52.10
2017-10-16T13:55:03.000Z,52.67
2017-10-16T13:56:03.000Z,52.51
2017-10-16T13:57:03.000Z,52.47
2017-10-16T13:58:03.000Z,53.46
2017-10-16T13:59:03.000Z,53.14
2017-10-16T14:00:03.000Z,52.50
2017-10-16T14:01:03.000Z,49.38
2017-10-16T14:02:03.000Z,52.75
2017-10-16T14:03:03.000Z,54.95
2017-10-16T14:04:03.000Z,51.48
2017-10-16T14:05:03.000Z,51.73
2017-10-16T14:06:03.000Z,56.51
2017-10-16T14:07:03.000Z,55.43
2017-10-16T14:08:03.000Z,54.62
2017-10-16T14:09:03.000Z,56.32
2017-10-16T14:10:03.000Z,59.83
2017-10-16T14:11:03.000Z,61.97
2017-10-16T14:12:03.000Z,59.76
2017-10-16T14:13:03.000Z,61.59
2017-10-16T14:14:03.000Z,57.34
2017-10-16T14:15:03.000Z,56.16
2017-10-16T14:16:03.000Z,57.06
2017-10-16T14:17:03.000Z,57.12
2017-10-16T14:18:03.000Z,59.48
2017-10-16T14:19:03.000Z,58.66
2017-10-16T14:20:03.000Z,59.11
2017-10-16T14:21:03.000Z,57.15
2017-10-16T14:22:03.000Z,57.50
2017-10-16T14:23:03.000Z,60.02
2017-10-16T14:24:03.000Z,55.26
2017-10-16T14:25:03.000Z,59.73
2017-10-16T14:26:03.000Z,59.44
2017-10-16T14:27:03.000Z,65.83
2017-10-16T14:28:03.000Z,62.27
2017-10-16T14:29:03.000Z,63.46
2017-10-16T14:30:03.000Z,63.54
2017-10-16T14:31:03.000Z,63.83
2017-10-16T14:32:03.000Z,61.53
2017-10-16T14:33:03.000Z,60.16
2017-10-16T14:34:03.000Z,63.98
2017-10-16T14:35:03.000Z,68.25
2017-10-16T14:36:03.000Z,66.43
2017-10-16T14:37:03.000Z,67.68
2017-10-16T14:38:03.000Z,68.31
2017-10-16T14:39:03.000Z,65.79
2017-10-16T14:40:03.000Z,67.35
2017-10-16T14:41:03.000Z,68.55
2017-10-16T14:42:03.000Z,69.20
2017-10-16T14:43:03.000Z,65.48
2017-10-16T14:44:03.000Z,67.93
2017-10-16T14:45:03.000Z,67.15
2017-10-16T14:46:03.000Z,67.77
2017-10-16T14:47:03.000Z,62.40
2017-10-16T14:48:03.000Z,67.06
2017-10-16T14:49:03.000Z,67.91
2017-10-16T14:50:03.000Z,68.20
2017-10-16T14:51:03.000Z,67.49
2017-10-16T14:52:03.000Z,70.40
2017-10-16T14:53:03.000Z,69.38
2017-10-16T14:54:03.000Z,69.41
2017-10-16T14:55:03.000Z,69.54
2017-10-16T14:56:03.000Z,69.13
2017-10-16T14:57:03.000Z,69.27
2017-10-16T14:58:03.000Z,71.62
2017-10-16T14:59:03.000Z,71.44
2017-10-16T15:00:03.000Z,69.02
2017-10-16T15:01:03.000Z,70.16
2017-10-16T15:02:03.000Z,67.80
2017-10-16T15:03:03.000Z,66.08
2017-10-16T15:04:03.000Z,66.79
2017-10-16T15:05:03.000Z,63.14
2017-10-16T15:06:03.000Z,66.01
2017-10-16T15:07:03.000Z,65.12
2017-10-16T15:08:03.000Z,65.28
2017-10-16T15:09:03.000Z,65.45
2017-10-16T15:10:03.000Z,66.50
2017-10-16T15:11:03.000Z,68.50
2017-10-16T15:12:03.000Z,69.39
2017-10-16T15:13:03.000Z,70.06
2017-10-16T15:14:03.000Z,70.56
2017-10-16T15:15:03.000Z,71.22
2017-10-16T15:16:03.000Z,71.37
2017-10-16T15:17:03.000Z,72.60
2017-10-16T15:18:03.000Z,72.55
2017-10-16T15:19:03.000Z,73.54
2017-10-16T15:20:03.000Z,73.26
2017-10-16T15:20:58.000Z,73.03
2017-10-16T15:22:03.000Z,73.62
2017-10-16T15:23:03.000Z,73.75
2017-10-16T15:24:03.000Z,74.82
2017-10-16T15:25:03.000Z,74.85
2017-10-16T15:26:03.000Z,74.61
2017-10-16T15:27:03.000Z,74.44
2017-10-16T15:28:03.000Z,74.82
2017-10-16T15:29:03.000Z,74.51
2017-10-16T15:30:03.000Z,74.67
2017-10-16T15:31:03.000Z,75.29
2017-10-16T15:32:03.000Z,74.94
2017-10-16T15:33:03.000Z,74.85
2017-10-16T15:34:03.000Z,74.50
2017-10-16T15:35:03.000Z,75.35
2017-10-16T15:36:03.000Z,74.08
2017-10-16T15:37:03.000Z,74.69
2017-10-16T15:38:03.000Z,74.83
2017-10-16T15:39:03.000Z,74.38
2017-10-16T15:40:03.000Z,74.49
2017-10-16T15:41:03.000Z,74.70
2017-10-16T15:42:03.000Z,74.82
2017-10-16T15:43:03.000Z,75.13
2017-10-16T15:44:03.000Z,74.93
2017-10-16T15:45:03.000Z,75.77
2017-10-16T15:46:03.000Z,76.29
2017-10-16T15:47:03.000Z,76.24
2017-10-16T15:48:03.000Z,77.69
2017-10-16T15:49:03.000Z,75.35
2017-10-16T15:50:03.000Z,74.41
2017-10-16T15:51:03.000Z,74.03
2017-10-16T15:52:03.000Z,74.42
2017-10-16T15:53:03.000Z,74.98
2017-10-16T15:54:03.000Z,75.50
2017-10-16T15:55:03.000Z,77.04
2017-10-16T15:56:03.000Z,77.69
2017-10-16T15:57:03.000Z,76.95
2017-10-16T15:58:03.000Z,77.68
2017-10-16T15:59:03.000Z,77.95
2017-10-16T16:00:03.000Z,77.67
2017-10-16T16:01:03.000Z,78.19
2017-10-16T16:02:03.000Z,77.54
2017-10-16T16:03:03.000Z,78.28
2017-10-16T16:04:03.000Z,78.31
2017-10-16T16:05:03.000Z,78.87
2017-10-16T16:06:03.000Z,77.23
2017-10-16T16:07:03.000Z,77.74
2017-10-16T16:08:03.000Z,78.91
2017-10-16T16:09:03.000Z,79.66
2017-10-16T16:10:03.000Z,78.78
2017-10-16T16:11:03.000Z,77.47
2017-10-16T16:12:03.000Z,77.15
2017-10-16T16:13:03.000Z,77.35
2017-10-16T16:14:03.000Z,75.59
2017-10-16T16:15:03.000Z,75.24
2017-10-16T16:16:03.000Z,74.67
2017-10-16T16:17:03.000Z,73.66
2017-10-16T16:18:03.000Z,72.87
2017-10-16T16:19:03.000Z,72.43
2017-10-16T16:20:03.000Z,72.59
2017-10-16T16:21:03.000Z,72.02
2017-10-16T16:22:03.000Z,72.21
2017-10-16T16:23:03.000Z,72.74
2017-10-16T16:24:03.000Z,72.48
2017-10-16T16:25:03.000Z,71.79
2017-10-16T16:26:03.000Z,72.04
2017-10-16T16:27:03.000Z,71.65
2017-10-16T16:28:03.000Z,71.08
2017-10-16T16:29:04.000Z,70.37
2017-10-16T16:30:03.000Z,69.56
2017-10-16T16:31:03.000Z,69.31
2017-10-16T16:32:03.000Z,69.20
2017-10-16T16:33:03.000Z,68.87
2017-10-16T16:34:03.000Z,68.27
2017-10-16T16:35:03.000Z,68.15
2017-10-16T16:36:03.000Z,66.06
2017-10-16T16:36:58.000Z,66.29
2017-10-16T16:38:03.000Z,65.83
2017-10-16T16:39:03.000Z,66.42
2017-10-16T16:40:03.000Z,64.77
2017-10-16T16:41:03.000Z,65.14
2017-10-16T16:42:03.000Z,64.79
2017-10-16T16:43:03.000Z,64.82
2017-10-16T16:44:03.000Z,65.53
2017-10-16T16:45:03.000Z,64.44
2017-10-16T16:46:00.000Z,65.02
2017-10-16T16:47:05.000Z,65.46
2017-10-16T16:48:03.000Z,65.63
2017-10-16T16:49:03.000Z,65.15
2017-10-16T16:50:03.000Z,65.26
2017-10-16T16:51:03.000Z,65.60
2017-10-16T16:52:03.000Z,65.53
2017-10-16T16:52:58.000Z,66.27
2017-10-16T16:54:03.000Z,68.17
2017-10-16T16:55:03.000Z,70.85
2017-10-16T16:56:03.000Z,71.71
2017-10-16T16:57:03.000Z,72.37
2017-10-16T16:58:03.000Z,73.50
2017-10-16T16:59:03.000Z,74.63
2017-10-16T16:59:58.000Z,75.70
2017-10-16T17:01:03.000Z,76.12
2017-10-16T17:01:58.000Z,77.74
2017-10-16T17:03:03.000Z,78.44
2017-10-16T17:04:03.000Z,79.29
2017-10-16T17:05:03.000Z,81.59
2017-10-16T17:06:03.000Z,80.93
2017-10-16T17:07:03.000Z,81.43
2017-10-16T17:08:03.000Z,81.77
2017-10-16T17:09:03.000Z,82.68
2017-10-16T17:10:03.000Z,83.18
2017-10-16T17:11:03.000Z,83.79
2017-10-16T17:12:03.000Z,84.15
2017-10-16T17:13:04.000Z,84.53
2017-10-16T17:14:03.000Z,84.88
2017-10-16T17:15:03.000Z,85.54
2017-10-16T17:16:03.000Z,86.20
2017-10-16T17:17:03.000Z,86.24
2017-10-16T17:18:03.000Z,86.71
2017-10-16T17:19:03.000Z,86.30
2017-10-16T17:20:03.000Z,86.17
2017-10-16T17:21:03.000Z,86.03
2017-10-16T17:22:03.000Z,86.16
2017-10-16T17:23:03.000Z,86.21
2017-10-16T17:24:03.000Z,85.91
2017-10-16T17:25:03.000Z,86.00
2017-10-16T17:26:03.000Z,86.08
2017-10-16T17:27:03.000Z,86.63
2017-10-16T17:28:04.000Z,86.87
2017-10-16T17:29:04.000Z,87.41
2017-10-16T17:30:03.000Z,87.89
2017-10-16T17:31:04.000Z,87.75
2017-10-16T17:32:04.000Z,87.86
2017-10-16T17:33:04.000Z,88.09
2017-10-16T17:34:04.000Z,88.17
2017-10-16T17:35:04.000Z,88.51
2017-10-16T17:36:04.000Z,87.57
2017-10-16T17:37:04.000Z,86.52
2017-10-16T17:38:04.000Z,85.76
2017-10-16T17:39:04.000Z,85.43
2017-10-16T17:40:04.000Z,85.98
2017-10-16T17:41:04.000Z,85.59
2017-10-16T17:42:04.000Z,85.71
2017-10-16T17:43:04.000Z,85.18
2017-10-16T17:44:04.000Z,85.11
2017-10-16T17:45:04.000Z,84.53
2017-10-16T17:46:04.000Z,83.03
2017-10-16T17:47:04.000Z,83.90
2017-10-16T17:48:04.000Z,83.41
2017-10-16T17:49:04.000Z,83.72
2017-10-16T17:50:04.000Z,84.52
2017-10-16T17:51:04.000Z,85.67
2017-10-16T17:52:04.000Z,86.66
2017-10-16T17:52:59.000Z,87.05
2017-10-16T17:54:04.000Z,87.25
2017-10-16T17:55:04.000Z,86.41
2017-10-16T17:56:04.000Z,85.36
2017-10-16T17:57:04.000Z,84.56
2017-10-16T17:58:04.000Z,83.92
2017-10-16T17:59:04.000Z,83.26
2017-10-16T18:00:04.000Z,83.58
2017-10-16T18:01:04.000Z,83.38
2017-10-16T18:02:04.000Z,83.91
2017-10-16T18:03:04.000Z,84.92
2017-10-16T18:04:04.000Z,85.64
2017-10-16T18:05:04.000Z,86.62
2017-10-16T18:06:04.000Z,87.35
2017-10-16T18:07:04.000Z,87.56
2017-10-16T18:08:04.000Z,87.38
2017-10-16T18:09:04.000Z,85.65
2017-10-16T18:10:04.000Z,86.48
2017-10-16T18:11:04.000Z,86.86
2017-10-16T18:12:04.000Z,85.63
2017-10-16T18:13:04.000Z,86.81
2017-10-16T18:14:04.000Z,86.76
2017-10-16T18:15:04.000Z,86.61